Marvel, Colorado
Current Conditions -  °F | °C
As of 1:53 AM on Tuesday 21 Oct 2014 (Local Time) from KDRO Reporting Station
Overcast Overcast  
Wind Chill: 50°   Ceiling: 6500
Heat Index: 50°   Visibility: 10mi
Dew Point: 43°   Wind: 6mph
Humidity: 77%   Direction: 50°NE
Pressure: 30.22"   Gusts: NA
Location:  37.11°N, 108.13°W
Report Text: KDRO 210753Z AUTO 05005KT 10SM BKN065 BKN080 OVC100 10/06 A3022 RMK AO2 SLP176 T01000061 PWINO
Loading
Personal Weather Stations






























Interactive Weather Map
Tropical Storm Tracking
New forecast layout! Learn more

10-Day Weather Forecast

Advertisements
Track Severe Weather on mobile